EGMD/LYX METAR and TAF weather

Enter ICAO airport designator
Station Type Date Time Source
EGMD METAR 2020/12/05 05:50 UTC NOAA

EGMD 050550Z AUTO 17011KT 6000 SHGR BKN019/// BKN024/// 08/05 Q0988


Station Type Date Time Source
EGMD Decoded METAR 2020/12/05 05:50 UTC NOAA

Lydd Airport , United Kingdom (EGMD) 50-57N 000-56E
Dec 05, 2020 - 12:50 AM EST / 2020.12.05 0550 UTC
Wind: from the S (170 degrees) at 13 MPH (11 KT):0
Visibility: 3 mile(s):0
Sky conditions: mostly cloudy
Weather: hail showers
Temperature: 46 F (8 C)
Dew Point: 41 F (5 C)
Relative Humidity: 81%
Pressure (altimeter): 29.18 in. Hg (0988 hPa)
ob: EGMD 050550Z AUTO 17011KT 6000 SHGR BKN019/// BKN024/// 08/05 Q0988
cycle: 6

Station Type Date Time Source
EGMD TAF UTC NOAA

Error!

Example: see airport list